createdAt,value
2019-04-11T00:04:26.291Z,7.61
2019-04-11T00:09:28.451Z,7.58
2019-04-11T00:14:31.635Z,7.52
2019-04-11T00:19:33.953Z,7.49
2019-04-11T00:24:36.746Z,7.46
2019-04-11T00:29:38.924Z,7.40
2019-04-11T00:34:40.985Z,7.32
2019-04-11T00:39:43.731Z,7.31
2019-04-11T00:44:45.905Z,7.22
2019-04-11T00:49:48.481Z,7.21
2019-04-11T00:54:51.177Z,7.19
2019-04-11T00:59:54.329Z,7.18
2019-04-11T01:04:57.108Z,7.07
2019-04-11T01:09:59.406Z,7.00
2019-04-11T01:15:01.446Z,6.93
2019-04-11T01:20:06.996Z,6.87
2019-04-11T01:25:10.357Z,6.92
2019-04-11T01:30:24.904Z,6.87
2019-04-11T01:35:27.189Z,6.81
2019-04-11T01:40:29.842Z,6.76
2019-04-11T01:45:32.228Z,6.69
2019-04-11T01:50:35.017Z,6.56
2019-04-11T01:55:37.174Z,6.50
2019-04-11T02:01:06.379Z,6.40
2019-04-11T02:06:09.737Z,6.38
2019-04-11T02:11:12.937Z,6.25
2019-04-11T02:16:15.210Z,6.16
2019-04-11T02:21:17.813Z,6.23
2019-04-11T02:26:29.410Z,6.10
2019-04-11T02:31:32.598Z,6.04
2019-04-11T02:36:36.425Z,5.98
2019-04-11T02:41:39.852Z,5.98
2019-04-11T02:46:50.372Z,5.95
2019-04-11T02:51:47.324Z,5.87
2019-04-11T02:56:52.463Z,5.90
2019-04-11T03:01:55.778Z,5.83
2019-04-11T03:07:00.111Z,5.79
2019-04-11T03:12:02.969Z,5.73
2019-04-11T03:17:13.037Z,5.65
2019-04-11T03:22:10.298Z,5.65
2019-04-11T03:27:12.535Z,5.61
2019-04-11T03:33:00.593Z,5.48
2019-04-11T03:37:43.094Z,5.45
2019-04-11T03:42:38.140Z,5.40
2019-04-11T03:47:37.482Z,5.36
2019-04-11T03:52:32.752Z,5.33
2019-04-11T03:57:35.215Z,5.27
2019-04-11T04:02:38.988Z,5.25
2019-04-11T04:07:41.485Z,5.17
2019-04-11T04:12:45.248Z,5.18
2019-04-11T04:17:59.556Z,5.14
2019-04-11T04:23:20.867Z,5.15
2019-04-11T04:28:23.853Z,5.13
2019-04-11T04:33:27.276Z,5.12
2019-04-11T04:38:31.605Z,5.21
2019-04-11T04:43:36.195Z,5.24
2019-04-11T04:48:38.297Z,5.24
2019-04-11T04:53:43.058Z,5.19
2019-04-11T04:58:46.691Z,5.22
2019-04-11T05:03:50.866Z,5.25
2019-04-11T05:08:53.094Z,5.23
2019-04-11T05:13:56.573Z,5.24
2019-04-11T05:19:01.434Z,5.29
2019-04-11T05:24:04.068Z,5.31
2019-04-11T05:29:06.920Z,5.40
2019-04-11T05:34:09.955Z,5.43
2019-04-11T05:39:13.092Z,5.53
2019-04-11T05:44:16.725Z,5.66
2019-04-11T05:49:41.659Z,5.72
2019-04-11T05:54:54.339Z,6.21
2019-04-11T05:59:57.734Z,9.49
2019-04-11T06:05:06.861Z,11.52
2019-04-11T06:10:14.673Z,12.93
2019-04-11T06:15:21.517Z,13.94
2019-04-11T06:20:43.523Z,14.66
2019-04-11T06:26:24.686Z,15.44
2019-04-11T06:31:45.448Z,16.01
2019-04-11T06:36:55.785Z,16.31
2019-04-11T06:42:16.446Z,16.59
2019-04-11T06:47:40.989Z,16.55
2019-04-11T06:52:43.412Z,16.52
2019-04-11T06:57:46.239Z,15.92
2019-04-11T07:02:59.354Z,15.54
2019-04-11T07:08:02.159Z,15.03
2019-04-11T07:13:33.146Z,14.91
2019-04-11T07:18:57.035Z,14.70
2019-04-11T07:24:18.184Z,14.73
2019-04-11T07:29:40.197Z,14.68
2019-04-11T07:35:17.372Z,14.66
2019-04-11T07:40:58.887Z,14.28
2019-04-11T07:46:25.221Z,14.71
2019-04-11T07:51:28.576Z,14.75
2019-04-11T07:56:59.132Z,14.69
2019-04-11T08:02:23.934Z,14.78
2019-04-11T08:07:53.084Z,14.76
2019-04-11T08:12:56.144Z,14.60
2019-04-11T08:18:01.970Z,14.53
2019-04-11T08:23:07.590Z,14.06
2019-04-11T08:28:13.917Z,13.70
2019-04-11T08:33:16.239Z,13.77
2019-04-11T08:38:24.686Z,13.92
2019-04-11T08:43:29.448Z,14.20
2019-04-11T08:48:33.282Z,14.11
2019-04-11T08:53:53.821Z,13.56
2019-04-11T08:59:31.397Z,13.23
2019-04-11T09:05:06.918Z,13.37
2019-04-11T09:10:28.726Z,12.98
2019-04-11T09:15:49.241Z,12.36
2019-04-11T09:21:18.196Z,11.89
2019-04-11T09:26:41.133Z,11.42
2019-04-11T09:32:07.688Z,11.21
2019-04-11T09:37:22.074Z,10.96
2019-04-11T09:42:49.334Z,10.86
2019-04-11T09:48:14.752Z,10.82
2019-04-11T09:53:14.322Z,10.89
2019-04-11T09:58:23.652Z,10.68
2019-04-11T10:03:28.118Z,10.62
2019-04-11T10:08:44.647Z,10.56
2019-04-11T10:14:01.762Z,10.56
2019-04-11T10:19:07.633Z,10.51
2019-04-11T10:24:21.267Z,10.43
2019-04-11T10:29:42.372Z,10.60
2019-04-11T10:35:20.167Z,10.61
2019-04-11T10:40:42.164Z,10.70
2019-04-11T10:46:07.209Z,10.71
2019-04-11T10:51:13.204Z,10.66
2019-04-11T10:56:41.244Z,10.65
2019-04-11T11:02:06.624Z,10.70
2019-04-11T11:07:14.503Z,10.69
2019-04-11T11:12:35.172Z,10.54
2019-04-11T11:18:29.637Z,10.56
2019-04-11T11:23:29.501Z,10.75
2019-04-11T11:28:34.126Z,10.97
2019-04-11T11:33:38.507Z,11.05
2019-04-11T11:38:44.049Z,11.05
2019-04-11T11:43:48.265Z,10.97
2019-04-11T11:48:58.150Z,11.37
2019-04-11T11:54:09.713Z,11.41
2019-04-11T11:59:21.229Z,11.42
2019-04-11T12:04:42.925Z,11.32
2019-04-11T12:10:03.196Z,11.41
2019-04-11T12:15:43.557Z,11.40
2019-04-11T12:20:54.723Z,11.48
2019-04-11T12:25:55.788Z,11.52
2019-04-11T12:31:03.822Z,11.45
2019-04-11T12:36:14.694Z,11.52
2019-04-11T12:41:28.877Z,11.32
2019-04-11T12:46:49.208Z,11.42
2019-04-11T12:52:09.738Z,11.42
2019-04-11T12:57:30.276Z,11.49
2019-04-11T13:02:59.456Z,11.42
2019-04-11T13:08:20.150Z,11.02
2019-04-11T13:13:35.987Z,10.85
2019-04-11T13:18:56.790Z,10.81
2019-04-11T13:24:17.287Z,10.79
2019-04-11T13:29:26.578Z,10.75
2019-04-11T13:34:28.824Z,10.73
2019-04-11T13:39:31.012Z,10.44
2019-04-11T13:44:35.349Z,10.70
2019-04-11T13:49:51.438Z,10.88
2019-04-11T13:55:00.526Z,10.92
2019-04-11T14:01:14.816Z,11.17
2019-04-11T14:06:21.676Z,11.06
2019-04-11T14:11:24.093Z,11.22
2019-04-11T14:16:26.365Z,11.12
2019-04-11T14:21:31.452Z,11.11
2019-04-11T14:26:36.637Z,11.00
2019-04-11T14:37:02.038Z,10.83
2019-04-11T14:42:29.463Z,10.71
2019-04-11T14:47:50.289Z,10.71
2019-04-11T14:53:20.867Z,10.71
2019-04-11T14:58:40.972Z,10.77
2019-04-11T15:04:13.515Z,10.87
2019-04-11T15:09:35.220Z,10.96
2019-04-11T15:14:51.694Z,10.96
2019-04-11T15:20:10.282Z,11.00
2019-04-11T15:25:22.132Z,10.97
2019-04-11T15:30:24.981Z,10.78
2019-04-11T15:35:27.378Z,10.77
2019-04-11T15:40:35.547Z,10.65
2019-04-11T15:46:01.291Z,10.61
2019-04-11T15:51:21.747Z,10.60
2019-04-11T15:56:42.088Z,10.65
2019-04-11T16:02:06.602Z,10.62
2019-04-11T16:07:42.533Z,10.55
2019-04-11T16:12:52.439Z,10.50
2019-04-11T16:18:26.276Z,10.37
2019-04-11T16:23:36.668Z,10.46
2019-04-11T16:29:00.239Z,10.47
2019-04-11T16:34:08.927Z,10.46
2019-04-11T16:39:49.985Z,10.18
2019-04-11T16:45:12.523Z,10.23
2019-04-11T16:50:14.605Z,10.25
2019-04-11T16:55:16.740Z,10.23
2019-04-11T17:00:20.615Z,10.29
2019-04-11T17:05:23.998Z,10.28
2019-04-11T17:10:45.831Z,10.31
2019-04-11T17:15:47.927Z,10.36
2019-04-11T17:20:50.033Z,10.34
2019-04-11T17:25:53.083Z,10.21
2019-04-11T17:30:56.010Z,10.23
2019-04-11T17:36:02.141Z,10.09
2019-04-11T17:41:02.301Z,10.05
2019-04-11T17:46:04.343Z,10.03
2019-04-11T17:51:06.486Z,9.92
2019-04-11T17:56:08.613Z,9.96
2019-04-11T18:01:10.825Z,9.97
2019-04-11T18:06:16.913Z,9.82
2019-04-11T18:11:17.133Z,9.71
2019-04-11T18:16:19.183Z,9.67
2019-04-11T18:21:21.219Z,9.61
2019-04-11T18:26:23.300Z,9.53
2019-04-11T18:31:25.653Z,9.48
2019-04-11T18:36:31.796Z,9.52
2019-04-11T18:41:32.951Z,9.44
2019-04-11T18:46:35.039Z,9.40
2019-04-11T18:51:37.115Z,9.38
2019-04-11T18:56:39.166Z,9.30
2019-04-11T19:01:41.306Z,9.24
2019-04-11T19:06:45.434Z,9.19
2019-04-11T19:11:51.544Z,9.22
2019-04-11T19:16:53.822Z,9.19
2019-04-11T19:21:56.283Z,9.17
2019-04-11T19:26:58.370Z,9.13
2019-04-11T19:32:00.434Z,9.10
2019-04-11T19:37:03.845Z,9.09
2019-04-11T19:42:09.161Z,8.96
2019-04-11T19:47:11.857Z,8.93
2019-04-11T19:52:13.965Z,8.88
2019-04-11T19:57:16.046Z,8.88
2019-04-11T20:02:18.186Z,8.93
2019-04-11T20:07:20.355Z,8.93
2019-04-11T20:12:22.450Z,8.92
2019-04-11T20:17:24.510Z,8.94
2019-04-11T20:22:26.617Z,8.96
2019-04-11T20:27:28.707Z,8.89
2019-04-11T20:32:33.146Z,8.96
2019-04-11T20:37:39.534Z,9.02
2019-04-11T20:42:39.122Z,8.97
2019-04-11T20:47:41.156Z,8.88
2019-04-11T20:52:43.245Z,8.93
2019-04-11T20:57:45.311Z,8.93
2019-04-11T21:02:48.680Z,8.83
2019-04-11T21:07:50.756Z,8.94
2019-04-11T21:12:52.850Z,8.96
2019-04-11T21:17:56.102Z,8.92
2019-04-11T21:22:58.789Z,8.94
2019-04-11T21:28:00.966Z,8.97
2019-04-11T21:33:03.663Z,8.96
2019-04-11T21:38:06.534Z,8.95
2019-04-11T21:43:08.599Z,8.93
2019-04-11T21:48:12.902Z,8.98
2019-04-11T21:53:15.313Z,8.94
2019-04-11T21:58:20.194Z,8.97
2019-04-11T22:03:24.073Z,8.99
2019-04-11T22:08:25.607Z,8.97
2019-04-11T22:13:27.683Z,9.01
2019-04-11T22:18:29.811Z,8.93
2019-04-11T22:23:31.987Z,8.88
2019-04-11T22:28:34.375Z,8.84
2019-04-11T22:33:50.744Z,8.78
2019-04-11T22:38:52.865Z,8.78
2019-04-11T22:43:54.925Z,8.75
2019-04-11T22:48:57.058Z,8.65
2019-04-11T22:54:00.500Z,8.67
2019-04-11T22:59:02.805Z,8.58
2019-04-11T23:04:05.249Z,8.54
2019-04-11T23:09:07.673Z,8.52
2019-04-11T23:14:09.778Z,8.50
2019-04-11T23:19:14.333Z,8.46
2019-04-11T23:24:15.937Z,8.42
2019-04-11T23:29:18.063Z,8.31
2019-04-11T23:34:22.108Z,8.26
2019-04-11T23:39:24.179Z,8.28
2019-04-11T23:44:26.244Z,8.29
2019-04-11T23:49:28.438Z,8.25
2019-04-11T23:54:30.545Z,8.22
2019-04-11T23:59:32.767Z,8.32
